Djanet, Algeria
Current Conditions -  °F | °C
As of 4:00 AM on Tuesday 27 Jan 2015 (Local Time) from DAAJ Reporting Station
Clear Clear  
Wind Chill: 37°   Ceiling: Unl
Heat Index: 43°   Visibility: 6mi
Dew Point: 19°   Wind: 12mph
Humidity: 39%   Direction: 330°NNW
Pressure: 30.12"   Gusts: NA
Location:  24.55°N, 9.48°E
Report Text: DAAJ 270300Z 33010KT CAVOK 06/M07 Q1020
Loading
Personal Weather Stations






























Interactive Weather Map New forecast layout! Learn more

10-Day Weather Forecast

Advertisements
Track Severe Weather on mobile